Time;durP1;ratioP1;P1;durP2;ratioP2;P2;SDS_P1;SDS_P2;PMS_P1;PMS_P2;Temp;Humidity;BMP_temperature;BMP_pressure;BME280_temperature;BME280_humidity;BME280_pressure;Samples;Min_cycle;Max_cycle;Signal;HPM_P1;HPM_P2
2023/07/01 00:01:25;;;;;;;8.57;3.72;;;17.70;98.10;;;;;;4956995;28;20137;-70
2023/07/01 00:03:51;;;;;;;8.45;3.60;;;17.70;98.10;;;;;;4970111;28;20046;-71
2023/07/01 00:06:19;;;;;;;12.75;3.63;;;17.80;98.20;;;;;;4975003;28;20035;-71
2023/07/01 00:08:45;;;;;;;9.95;5.18;;;17.80;98.30;;;;;;4937785;28;20035;-70
2023/07/01 00:11:11;;;;;;;6.75;2.60;;;17.80;98.40;;;;;;4953332;28;20566;-71
2023/07/01 00:13:46;;;;;;;6.75;3.13;;;17.80;98.50;;;;;;4960004;28;20046;-71
2023/07/01 00:16:13;;;;;;;6.68;2.30;;;17.80;98.70;;;;;;4963957;28;20534;-71
2023/07/01 00:18:40;;;;;;;7.15;2.83;;;17.80;99.00;;;;;;4946033;28;20144;-71
2023/07/01 00:21:09;;;;;;;6.90;2.55;;;17.80;99.10;;;;;;4934658;28;20054;-71
2023/07/01 00:23:35;;;;;;;7.93;2.80;;;17.80;99.30;;;;;;4947691;28;20604;-70
2023/07/01 00:26:01;;;;;;;7.78;2.53;;;17.80;99.40;;;;;;4927572;28;20057;-71
2023/07/01 00:28:27;;;;;;;7.13;2.10;;;17.70;99.60;;;;;;4948077;28;20049;-70
2023/07/01 00:30:53;;;;;;;8.15;2.80;;;17.70;99.80;;;;;;4947393;28;20046;-71
2023/07/01 00:33:19;;;;;;;7.28;2.90;;;17.70;99.90;;;;;;4948655;28;20104;-71
2023/07/01 00:35:46;;;;;;;6.07;2.35;;;17.80;99.90;;;;;;4931003;28;20174;-71
2023/07/01 00:38:11;;;;;;;7.15;2.60;;;17.70;99.90;;;;;;4932687;28;20136;-70
2023/07/01 00:40:37;;;;;;;9.50;2.80;;;17.80;99.90;;;;;;4945457;28;20078;-71
2023/07/01 00:43:03;;;;;;;6.07;2.50;;;17.80;99.90;;;;;;4945293;28;20856;-70
2023/07/01 00:45:29;;;;;;;7.72;2.80;;;17.80;99.90;;;;;;4949363;28;20544;-70
2023/07/01 00:47:55;;;;;;;10.32;2.88;;;17.80;99.90;;;;;;4974592;28;20031;-70
2023/07/01 00:50:21;;;;;;;8.60;3.15;;;17.80;99.90;;;;;;4972692;28;20050;-71
2023/07/01 00:52:47;;;;;;;7.40;2.72;;;17.80;99.90;;;;;;4950030;28;20050;-71
2023/07/01 00:55:13;;;;;;;6.03;2.40;;;17.80;99.90;;;;;;4960411;28;20046;-71
2023/07/01 00:57:39;;;;;;;14.02;2.97;;;17.80;99.90;;;;;;4969033;28;20053;-71
2023/07/01 01:00:10;;;;;;;6.03;2.75;;;17.80;99.90;;;;;;4968663;28;20046;-71
2023/07/01 01:03:15;;;;;;;6.47;2.60;;;17.80;99.90;;;;;;4950538;28;20706;-71
2023/07/01 01:05:50;;;;;;;6.15;2.40;;;17.80;99.90;;;;;;4969538;28;20046;-70
2023/07/01 01:08:23;;;;;;;6.30;2.50;;;17.80;99.90;;;;;;4948642;28;20826;-71
2023/07/01 01:10:50;;;;;;;8.52;3.10;;;17.80;99.90;;;;;;4952679;28;20121;-71
2023/07/01 01:13:18;;;;;;;6.90;2.42;;;17.80;99.90;;;;;;4968592;28;20042;-72
2023/07/01 01:15:44;;;;;;;8.43;2.95;;;17.80;99.90;;;;;;4970178;28;20042;-71
2023/07/01 01:18:16;;;;;;;7.93;3.13;;;17.80;99.90;;;;;;4957479;28;20452;-71
2023/07/01 01:20:44;;;;;;;6.57;2.78;;;17.80;99.90;;;;;;4966454;28;20054;-71
2023/07/01 01:23:14;;;;;;;7.15;2.58;;;17.80;99.90;;;;;;4982567;28;20057;-71
2023/07/01 01:26:05;;;;;;;12.20;3.53;;;17.70;99.90;;;;;;4949309;28;20042;-71
2023/07/01 01:28:37;;;;;;;12.82;3.28;;;17.80;99.90;;;;;;4949875;28;20050;-74
2023/07/01 01:31:04;;;;;;;7.40;2.88;;;17.70;99.90;;;;;;4948728;28;20068;-74
2023/07/01 01:33:30;;;;;;;6.43;3.35;;;17.70;99.90;;;;;;4946181;28;20548;-74
2023/07/01 01:36:37;;;;;;;10.27;2.95;;;17.70;99.90;;;;;;4952455;28;20034;-74
2023/07/01 01:39:05;;;;;;;8.27;2.80;;;17.70;99.90;;;;;;4951171;28;20616;-73
2023/07/01 01:41:53;;;;;;;7.85;3.00;;;17.70;99.90;;;;;;4934481;28;20082;-73
2023/07/01 01:44:31;;;;;;;7.53;3.10;;;17.70;99.90;;;;;;4917059;28;20043;-73
2023/07/01 01:46:58;;;;;;;8.27;3.00;;;17.70;99.90;;;;;;4949970;28;20073;-73
2023/07/01 01:49:26;;;;;;;6.60;2.80;;;17.60;99.90;;;;;;4954493;28;20094;-74
2023/07/01 01:51:53;;;;;;;8.32;4.43;;;17.60;99.90;;;;;;4938672;28;20046;-73
2023/07/01 01:54:23;;;;;;;9.32;3.20;;;17.60;99.90;;;;;;4931009;28;20078;-71
2023/07/01 01:56:51;;;;;;;8.00;3.63;;;17.60;99.90;;;;;;4943561;28;20051;-71
2023/07/01 01:59:20;;;;;;;8.00;3.45;;;17.50;99.90;;;;;;4953090;28;20081;-71
2023/07/01 02:01:46;;;;;;;7.00;3.75;;;17.50;99.90;;;;;;4978085;28;20069;-71
2023/07/01 02:04:12;;;;;;;8.45;3.97;;;17.50;99.90;;;;;;4968072;28;20054;-71
2023/07/01 02:06:38;;;;;;;8.73;4.07;;;17.40;99.90;;;;;;4957372;28;20346;-71
2023/07/01 02:09:04;;;;;;;8.57;3.85;;;17.30;99.90;;;;;;4965590;28;20058;-71
2023/07/01 02:11:30;;;;;;;5.10;3.53;;;17.30;99.90;;;;;;4967063;28;20378;-71
2023/07/01 02:13:55;;;;;;;7.35;4.00;;;17.30;99.90;;;;;;4962628;28;20544;-70
2023/07/01 02:16:21;;;;;;;9.77;4.03;;;17.20;99.90;;;;;;4964250;28;20553;-71
2023/07/01 02:18:47;;;;;;;7.75;3.60;;;17.20;99.90;;;;;;4973369;28;20125;-71
2023/07/01 02:21:13;;;;;;;6.25;3.92;;;17.20;99.90;;;;;;4961552;28;20050;-71
2023/07/01 02:23:38;;;;;;;8.10;4.22;;;17.20;99.90;;;;;;4968595;28;20046;-73
2023/07/01 02:26:04;;;;;;;9.00;3.92;;;17.20;99.90;;;;;;4966766;28;20098;-73
2023/07/01 02:28:30;;;;;;;9.05;4.13;;;17.20;99.90;;;;;;4965929;28;20042;-73
2023/07/01 02:30:55;;;;;;;10.88;4.13;;;17.30;99.90;;;;;;4976646;28;20046;-72
2023/07/01 02:33:21;;;;;;;9.40;4.05;;;17.30;99.90;;;;;;4972388;28;20337;-72
2023/07/01 02:35:47;;;;;;;7.43;4.15;;;17.30;99.90;;;;;;4968374;28;20047;-72
2023/07/01 02:38:14;;;;;;;7.75;3.83;;;17.40;99.90;;;;;;4971944;28;20046;-72
2023/07/01 02:40:41;;;;;;;7.57;4.38;;;17.40;99.90;;;;;;4967508;28;20634;-73
2023/07/01 02:43:10;;;;;;;7.38;4.50;;;17.40;99.90;;;;;;4971745;28;20539;-71
2023/07/01 02:45:35;;;;;;;11.13;4.68;;;17.40;99.90;;;;;;4947160;28;20046;-71
2023/07/01 02:48:01;;;;;;;9.30;4.35;;;17.40;99.90;;;;;;4970890;28;20539;-71
2023/07/01 02:50:27;;;;;;;7.68;3.67;;;17.40;99.90;;;;;;4966685;28;20038;-71
2023/07/01 02:52:53;;;;;;;6.97;3.38;;;17.30;99.90;;;;;;4944847;28;20074;-71
2023/07/01 02:55:27;;;;;;;7.80;3.58;;;17.30;99.90;;;;;;4961087;28;20038;-70
2023/07/01 02:57:53;;;;;;;8.45;3.75;;;17.30;99.90;;;;;;4967257;28;22268;-70
2023/07/01 03:00:19;;;;;;;10.48;4.07;;;17.30;99.90;;;;;;4961089;28;20121;-70
2023/07/01 03:02:44;;;;;;;8.32;4.40;;;17.30;99.90;;;;;;4941580;28;20047;-70
2023/07/01 03:05:10;;;;;;;7.50;4.20;;;17.30;99.90;;;;;;4934993;28;20716;-71
2023/07/01 03:07:36;;;;;;;7.78;4.13;;;17.20;99.90;;;;;;4943637;28;20050;-71
2023/07/01 03:10:02;;;;;;;10.00;4.32;;;17.10;99.90;;;;;;4942999;28;20053;-70
2023/07/01 03:12:28;;;;;;;9.45;4.70;;;17.10;99.90;;;;;;4954712;28;20729;-70
2023/07/01 03:14:54;;;;;;;8.20;4.60;;;17.00;99.90;;;;;;4959638;28;20051;-70
2023/07/01 03:17:21;;;;;;;8.25;4.43;;;16.90;99.90;;;;;;4949820;28;20089;-73
2023/07/01 03:19:47;;;;;;;6.47;3.90;;;16.90;99.90;;;;;;4950652;28;20088;-72
2023/07/01 03:22:12;;;;;;;9.52;4.68;;;16.80;99.90;;;;;;4939728;28;20984;-71
2023/07/01 03:24:38;;;;;;;8.75;4.90;;;16.70;99.90;;;;;;4948547;28;20050;-72
2023/07/01 03:27:04;;;;;;;8.30;4.55;;;16.60;99.90;;;;;;4946241;28;20035;-71
2023/07/01 03:29:30;;;;;;;8.88;5.05;;;16.50;99.90;;;;;;4945866;28;20035;-71
2023/07/01 03:31:56;;;;;;;7.28;4.68;;;16.50;99.90;;;;;;4961929;28;20733;-70
2023/07/01 03:34:22;;;;;;;10.13;5.65;;;16.40;99.90;;;;;;4947430;28;20053;-70
2023/07/01 03:36:48;;;;;;;9.65;5.70;;;16.30;99.90;;;;;;4945812;28;20046;-71
2023/07/01 03:39:16;;;;;;;11.85;5.30;;;16.30;99.90;;;;;;4964302;28;20047;-70
2023/07/01 03:41:42;;;;;;;9.48;5.15;;;16.20;99.90;;;;;;4958343;28;20043;-70
2023/07/01 03:44:08;;;;;;;7.07;4.63;;;16.20;99.90;;;;;;4961253;28;20576;-70
2023/07/01 03:46:34;;;;;;;12.32;5.30;;;16.10;99.90;;;;;;4946353;28;20042;-70
2023/07/01 03:48:59;;;;;;;7.93;5.30;;;16.10;99.90;;;;;;4962856;28;20046;-70
2023/07/01 03:51:26;;;;;;;8.77;5.30;;;16.10;99.90;;;;;;4949332;28;20490;-70
2023/07/01 03:53:52;;;;;;;11.70;5.70;;;16.10;99.90;;;;;;4950644;28;20054;-70
2023/07/01 03:56:18;;;;;;;9.95;4.90;;;16.00;99.90;;;;;;4965010;28;20434;-70
2023/07/01 03:58:44;;;;;;;8.20;5.53;;;16.00;99.90;;;;;;4930956;28;20134;-70
2023/07/01 04:01:09;;;;;;;7.97;4.85;;;15.90;99.90;;;;;;4942000;28;20050;-70
2023/07/01 04:03:37;;;;;;;9.50;5.47;;;15.90;99.90;;;;;;4958067;28;20042;-70
2023/07/01 04:06:06;;;;;;;7.55;5.57;;;15.90;99.90;;;;;;4976785;28;20133;-70
2023/07/01 04:08:34;;;;;;;7.15;5.13;;;15.90;99.90;;;;;;4969341;28;20057;-70
2023/07/01 04:11:01;;;;;;;7.07;5.30;;;15.90;99.90;;;;;;4971443;28;20058;-70
2023/07/01 04:13:27;;;;;;;9.05;5.57;;;15.90;99.90;;;;;;4980401;28;20038;-70
2023/07/01 04:15:53;;;;;;;9.25;5.28;;;15.90;99.90;;;;;;4983566;28;20046;-70
2023/07/01 04:18:20;;;;;;;8.38;5.22;;;15.90;99.90;;;;;;4970498;28;20438;-70
2023/07/01 04:20:46;;;;;;;8.77;5.30;;;15.90;99.90;;;;;;4966069;28;20144;-70
2023/07/01 04:23:12;;;;;;;8.95;5.55;;;16.00;99.90;;;;;;4960141;28;20124;-71
2023/07/01 04:25:39;;;;;;;7.22;5.30;;;16.00;99.90;;;;;;4971387;28;20124;-70
2023/07/01 04:28:08;;;;;;;9.05;5.75;;;16.00;99.90;;;;;;4983255;28;20050;-70
2023/07/01 04:30:33;;;;;;;10.05;6.35;;;16.00;99.90;;;;;;4985989;28;20452;-70
2023/07/01 04:32:59;;;;;;;9.60;6.22;;;16.00;99.90;;;;;;4970626;28;20053;-70
2023/07/01 04:35:25;;;;;;;9.30;5.63;;;16.10;99.90;;;;;;4956057;28;20703;-70
2023/07/01 04:37:51;;;;;;;8.18;5.80;;;16.10;99.90;;;;;;4975333;28;20050;-70
2023/07/01 04:40:16;;;;;;;8.93;5.90;;;16.10;99.90;;;;;;4980481;28;20113;-70
2023/07/01 04:42:50;;;;;;;9.95;6.00;;;16.10;99.90;;;;;;4978655;28;20054;-70
2023/07/01 04:45:18;;;;;;;9.75;5.70;;;16.00;99.90;;;;;;4958295;28;20470;-70
2023/07/01 04:47:45;;;;;;;7.70;5.45;;;16.10;99.90;;;;;;4982027;28;20035;-70
2023/07/01 04:50:11;;;;;;;7.00;5.53;;;16.10;99.90;;;;;;4978654;28;20668;-70
2023/07/01 04:52:37;;;;;;;7.00;5.22;;;16.10;99.90;;;;;;4975902;28;20107;-71
2023/07/01 04:55:03;;;;;;;8.88;5.65;;;16.10;99.90;;;;;;4987320;28;20038;-70
2023/07/01 04:57:29;;;;;;;8.18;5.18;;;16.10;99.90;;;;;;4983570;28;20116;-70
2023/07/01 04:59:54;;;;;;;7.63;5.10;;;16.20;99.90;;;;;;4981073;28;20489;-70
2023/07/01 05:02:20;;;;;;;7.15;5.65;;;16.20;99.90;;;;;;4976508;28;20129;-71
2023/07/01 05:04:46;;;;;;;8.43;5.80;;;16.20;99.90;;;;;;4985078;28;20604;-71
2023/07/01 05:07:12;;;;;;;9.20;5.63;;;16.20;99.90;;;;;;4941130;28;20078;-71
2023/07/01 05:09:38;;;;;;;9.07;5.18;;;16.20;99.90;;;;;;4956909;28;20531;-70
2023/07/01 05:12:04;;;;;;;10.15;5.90;;;16.20;99.90;;;;;;4958109;28;20137;-71
2023/07/01 05:14:30;;;;;;;7.57;5.40;;;16.20;99.90;;;;;;4979075;28;20128;-70
2023/07/01 05:16:55;;;;;;;7.50;5.32;;;16.30;99.90;;;;;;4966717;28;20050;-71
2023/07/01 05:19:21;;;;;;;7.32;5.40;;;16.30;99.90;;;;;;4951254;28;20047;-71
2023/07/01 05:21:54;;;;;;;7.40;5.20;;;16.20;99.90;;;;;;4983664;28;20122;-70
2023/07/01 05:24:20;;;;;;;8.63;5.40;;;16.30;99.90;;;;;;4964203;28;20526;-71
2023/07/01 05:26:48;;;;;;;7.10;4.95;;;16.30;99.90;;;;;;4940739;28;20117;-70
2023/07/01 05:29:14;;;;;;;7.97;5.07;;;16.30;99.90;;;;;;4983471;28;20116;-71
2023/07/01 05:31:40;;;;;;;7.03;5.18;;;16.30;99.90;;;;;;4983570;28;20042;-70
2023/07/01 05:34:09;;;;;;;6.93;5.20;;;16.40;99.90;;;;;;4977200;28;20501;-71
2023/07/01 05:36:36;;;;;;;10.02;5.50;;;16.40;99.90;;;;;;4964387;28;20048;-70
2023/07/01 05:39:03;;;;;;;7.35;5.22;;;16.40;99.90;;;;;;4967051;28;20034;-70
2023/07/01 05:41:29;;;;;;;5.88;5.00;;;16.40;99.90;;;;;;4981826;28;20038;-70
2023/07/01 05:43:55;;;;;;;7.50;5.63;;;16.40;99.90;;;;;;4979244;28;20069;-70
2023/07/01 05:46:21;;;;;;;8.25;5.50;;;16.40;99.90;;;;;;4978154;28;20047;-71
2023/07/01 05:48:47;;;;;;;10.02;5.70;;;16.50;99.90;;;;;;4982216;28;20039;-70
2023/07/01 05:51:12;;;;;;;9.60;5.93;;;16.50;99.90;;;;;;4968331;28;20042;-70
2023/07/01 05:53:38;;;;;;;8.00;5.40;;;16.50;99.90;;;;;;4960016;28;20116;-70
2023/07/01 05:56:04;;;;;;;7.75;5.30;;;16.60;99.90;;;;;;4956926;28;20050;-71
2023/07/01 05:58:30;;;;;;;8.43;5.50;;;16.60;99.90;;;;;;4972857;28;20050;-71
2023/07/01 06:00:56;;;;;;;8.25;6.18;;;16.60;99.90;;;;;;4956251;28;20050;-70
2023/07/01 06:03:21;;;;;;;8.25;5.82;;;16.70;99.90;;;;;;4963948;28;20051;-71
2023/07/01 06:05:47;;;;;;;9.00;6.05;;;16.70;99.90;;;;;;4957095;28;21644;-71
2023/07/01 06:08:13;;;;;;;8.10;5.78;;;16.70;99.90;;;;;;4930809;28;20070;-71
2023/07/01 06:10:39;;;;;;;8.18;6.10;;;16.70;99.90;;;;;;4931604;28;20145;-71
2023/07/01 06:13:04;;;;;;;9.18;6.68;;;16.60;99.90;;;;;;4949493;28;20097;-71
2023/07/01 06:15:30;;;;;;;9.93;6.20;;;16.60;99.90;;;;;;4970012;28;20054;-71
2023/07/01 06:17:56;;;;;;;8.75;6.55;;;16.60;99.90;;;;;;4975567;28;20059;-71
2023/07/01 06:20:22;;;;;;;7.82;6.72;;;16.60;99.90;;;;;;4978347;28;20046;-72
2023/07/01 06:22:47;;;;;;;8.77;6.70;;;16.60;99.90;;;;;;4946343;28;20065;-71
2023/07/01 06:25:14;;;;;;;7.72;6.72;;;16.60;99.90;;;;;;4948498;28;20047;-70
2023/07/01 06:27:39;;;;;;;7.93;7.13;;;16.60;99.90;;;;;;4947660;28;20047;-71
2023/07/01 06:30:06;;;;;;;12.10;7.22;;;16.60;99.90;;;;;;4961253;28;20805;-71
2023/07/01 06:32:34;;;;;;;8.68;7.72;;;16.60;99.90;;;;;;4948337;28;20205;-71
2023/07/01 06:35:00;;;;;;;9.95;8.40;;;16.60;99.90;;;;;;4949956;28;20084;-71
2023/07/01 06:37:26;;;;;;;10.15;8.77;;;16.60;99.90;;;;;;4944299;28;20085;-71
2023/07/01 06:39:52;;;;;;;9.32;8.43;;;16.60;99.90;;;;;;4946827;28;20725;-71
2023/07/01 06:42:18;;;;;;;11.18;8.68;;;16.60;99.90;;;;;;4946129;28;20053;-71
2023/07/01 06:44:44;;;;;;;10.75;8.45;;;16.50;99.90;;;;;;4946190;28;20069;-71
2023/07/01 06:47:10;;;;;;;10.90;9.77;;;16.50;99.90;;;;;;4946578;28;20054;-72
2023/07/01 06:49:35;;;;;;;10.95;9.75;;;16.50;99.90;;;;;;4930445;28;20073;-71
2023/07/01 06:52:01;;;;;;;11.18;10.07;;;16.50;99.90;;;;;;4947365;28;20560;-71
2023/07/01 06:54:27;;;;;;;10.63;9.65;;;16.50;99.90;;;;;;4949452;28;20057;-71
2023/07/01 06:56:53;;;;;;;12.52;10.00;;;16.50;99.90;;;;;;4950336;28;20051;-71
2023/07/01 06:59:19;;;;;;;10.73;9.73;;;16.50;99.90;;;;;;4949641;28;20042;-71
2023/07/01 07:01:44;;;;;;;10.55;9.63;;;16.50;99.90;;;;;;4933709;28;20085;-71
2023/07/01 07:04:13;;;;;;;11.32;10.23;;;16.50;99.90;;;;;;4940880;28;20062;-72
2023/07/01 07:06:39;;;;;;;12.05;10.48;;;16.50;99.90;;;;;;4941340;28;20046;-71
2023/07/01 07:09:05;;;;;;;11.48;10.38;;;16.50;99.90;;;;;;4926478;28;21040;-71
2023/07/01 07:11:31;;;;;;;12.30;11.20;;;16.50;99.90;;;;;;4940668;28;20046;-71
2023/07/01 07:13:57;;;;;;;12.25;11.05;;;16.60;99.90;;;;;;4926807;28;20057;-71
2023/07/01 07:16:23;;;;;;;12.55;11.35;;;16.60;99.90;;;;;;4925303;28;20058;-71
2023/07/01 07:18:48;;;;;;;11.63;10.45;;;16.60;99.90;;;;;;4938088;28;20051;-71
2023/07/01 07:21:15;;;;;;;12.00;10.80;;;16.60;99.90;;;;;;4921220;28;20061;-71
2023/07/01 07:23:40;;;;;;;11.63;10.55;;;16.60;99.90;;;;;;4922420;28;21205;-71
2023/07/01 07:26:09;;;;;;;10.55;9.45;;;16.60;99.90;;;;;;4931846;28;20049;-71
2023/07/01 07:28:38;;;;;;;10.77;9.82;;;16.70;99.90;;;;;;4938487;28;20517;-71
2023/07/01 07:31:04;;;;;;;11.18;10.05;;;16.70;99.90;;;;;;4948793;28;20077;-71
2023/07/01 07:33:30;;;;;;;11.50;10.27;;;16.70;99.90;;;;;;4938998;28;20126;-71
2023/07/01 07:35:55;;;;;;;11.55;10.52;;;16.70;99.90;;;;;;4938603;28;20056;-71
2023/07/01 07:38:21;;;;;;;11.93;10.82;;;16.70;99.90;;;;;;4951005;28;20093;-71
2023/07/01 07:40:47;;;;;;;11.30;10.25;;;16.70;99.90;;;;;;4921026;28;20051;-71
2023/07/01 07:43:13;;;;;;;11.95;10.75;;;16.70;99.90;;;;;;4961421;28;20075;-71
2023/07/01 07:45:39;;;;;;;12.25;11.15;;;16.80;99.90;;;;;;4949860;28;20041;-71
2023/07/01 07:48:05;;;;;;;12.82;11.63;;;16.80;99.90;;;;;;4966338;28;20460;-71
2023/07/01 07:50:33;;;;;;;12.43;11.32;;;16.80;99.90;;;;;;4965010;28;20093;-71
2023/07/01 07:52:59;;;;;;;11.52;10.43;;;16.80;99.90;;;;;;4959858;28;21291;-71
2023/07/01 07:55:33;;;;;;;12.18;11.07;;;16.80;99.90;;;;;;4956165;28;20134;-71
2023/07/01 07:57:59;;;;;;;11.85;10.85;;;16.80;99.90;;;;;;4950687;28;20178;-71
2023/07/01 08:00:25;;;;;;;12.48;11.27;;;16.90;99.90;;;;;;4948460;28;20042;-72
2023/07/01 08:02:51;;;;;;;12.55;11.48;;;16.90;99.90;;;;;;4972004;28;20061;-71
2023/07/01 08:05:17;;;;;;;12.73;11.50;;;16.90;99.90;;;;;;4981408;28;20061;-71
2023/07/01 08:07:47;;;;;;;12.98;11.88;;;16.90;99.90;;;;;;4981037;28;22975;-73
2023/07/01 08:10:13;;;;;;;13.88;12.50;;;16.90;99.90;;;;;;4978318;28;20130;-74
2023/07/01 08:12:39;;;;;;;12.80;11.60;;;17.00;99.90;;;;;;4980524;28;20113;-74
2023/07/01 08:15:05;;;;;;;13.95;12.63;;;17.00;99.90;;;;;;4964733;28;20193;-74
2023/07/01 08:17:31;;;;;;;13.80;12.50;;;17.10;99.90;;;;;;4978454;28;20070;-74
2023/07/01 08:19:57;;;;;;;12.88;11.65;;;17.10;99.90;;;;;;4981788;28;20590;-74
2023/07/01 08:22:23;;;;;;;13.13;12.02;;;17.10;99.90;;;;;;4983127;28;20038;-74
2023/07/01 08:24:49;;;;;;;12.10;11.07;;;17.20;99.90;;;;;;4981066;28;20595;-73
2023/07/01 08:27:15;;;;;;;12.48;11.27;;;17.20;99.90;;;;;;4980642;28;20030;-74
2023/07/01 08:29:41;;;;;;;13.13;11.90;;;17.20;99.90;;;;;;5004061;28;20037;-74
2023/07/01 08:32:07;;;;;;;12.23;11.18;;;17.30;99.90;;;;;;4978144;28;20051;-74
2023/07/01 08:34:35;;;;;;;11.93;10.93;;;17.20;99.90;;;;;;4980376;28;20045;-73
2023/07/01 08:37:04;;;;;;;12.50;11.30;;;17.30;99.90;;;;;;4977623;28;20047;-74
2023/07/01 08:39:30;;;;;;;13.77;12.37;;;17.30;99.90;;;;;;4967529;28;20053;-73
2023/07/01 08:41:59;;;;;;;12.50;11.35;;;17.30;99.90;;;;;;4976500;28;20054;-73
2023/07/01 08:44:26;;;;;;;12.35;11.35;;;17.30;99.90;;;;;;4970736;28;20105;-71
2023/07/01 08:46:55;;;;;;;11.77;10.57;;;17.30;99.90;;;;;;4982680;28;20050;-71
2023/07/01 08:49:24;;;;;;;11.07;10.18;;;17.30;99.90;;;;;;4946026;28;20408;-71
2023/07/01 08:52:06;;;;;;;12.30;11.30;;;17.30;99.90;;;;;;4936263;28;20882;-71
2023/07/01 08:54:33;;;;;;;12.32;11.23;;;17.30;99.90;;;;;;4941893;28;20141;-71
2023/07/01 08:57:00;;;;;;;12.00;10.95;;;17.40;99.90;;;;;;4928645;28;20067;-71
2023/07/01 08:59:27;;;;;;;11.30;10.30;;;17.40;99.90;;;;;;4944038;28;20109;-71
2023/07/01 09:01:54;;;;;;;11.88;10.80;;;17.40;99.90;;;;;;4962573;28;20082;-71
2023/07/01 09:04:20;;;;;;;11.38;10.45;;;17.50;99.90;;;;;;4945960;28;20086;-71
2023/07/01 09:06:45;;;;;;;11.02;10.13;;;17.50;99.90;;;;;;4914987;28;20097;-71
2023/07/01 09:09:11;;;;;;;11.25;10.25;;;17.50;99.90;;;;;;4939639;28;20629;-71
2023/07/01 09:11:37;;;;;;;11.85;10.82;;;17.60;99.90;;;;;;4939179;28;20076;-71
2023/07/01 09:14:03;;;;;;;10.23;9.43;;;17.60;99.90;;;;;;4943986;28;20043;-71
2023/07/01 09:16:39;;;;;;;10.50;9.60;;;17.60;99.90;;;;;;4941788;28;20082;-73
2023/07/01 09:19:10;;;;;;;10.82;9.93;;;17.70;99.90;;;;;;4953804;28;20379;-74
2023/07/01 09:21:37;;;;;;;10.68;9.77;;;17.70;99.90;;;;;;4980020;28;20050;-74
2023/07/01 09:24:06;;;;;;;10.93;9.93;;;17.60;99.90;;;;;;4968756;28;20068;-73
2023/07/01 09:26:34;;;;;;;11.18;10.10;;;17.70;99.90;;;;;;4985614;28;20062;-71
2023/07/01 09:29:11;;;;;;;11.88;10.77;;;17.70;99.90;;;;;;4976066;28;20068;-71
2023/07/01 09:31:47;;;;;;;10.95;9.85;;;17.80;99.90;;;;;;4970979;28;20501;-71
2023/07/01 09:34:14;;;;;;;11.82;10.82;;;17.90;99.90;;;;;;4964823;28;20073;-71
2023/07/01 09:36:40;;;;;;;11.50;10.40;;;17.80;99.90;;;;;;4980139;28;20054;-71
2023/07/01 09:39:05;;;;;;;11.13;10.23;;;17.90;99.90;;;;;;4976191;28;20039;-71
2023/07/01 09:41:31;;;;;;;10.90;9.98;;;17.90;99.90;;;;;;4963694;28;20047;-71
2023/07/01 09:43:59;;;;;;;11.52;10.45;;;17.90;99.90;;;;;;4979139;28;20485;-71
2023/07/01 09:46:42;;;;;;;10.23;9.32;;;17.90;99.90;;;;;;4979258;28;20460;-71
2023/07/01 09:49:08;;;;;;;11.90;10.80;;;17.90;99.90;;;;;;4960455;28;20046;-71
2023/07/01 09:51:48;;;;;;;10.68;9.68;;;17.90;99.90;;;;;;4981979;28;20069;-72
2023/07/01 09:54:27;;;;;;;11.20;10.20;;;18.00;99.90;;;;;;4994973;28;20596;-72
2023/07/01 09:56:56;;;;;;;10.55;9.65;;;17.90;99.90;;;;;;4957484;28;20584;-71
2023/07/01 09:59:22;;;;;;;10.75;9.85;;;17.90;99.90;;;;;;4978092;28;20066;-71
2023/07/01 10:01:50;;;;;;;11.25;10.15;;;17.90;99.90;;;;;;4999257;28;20587;-71
2023/07/01 10:04:19;;;;;;;11.02;10.13;;;17.90;99.90;;;;;;4956753;28;20078;-71
2023/07/01 10:06:45;;;;;;;10.10;9.27;;;17.90;99.90;;;;;;4975523;28;20043;-71
2023/07/01 10:09:11;;;;;;;11.18;10.18;;;17.90;99.90;;;;;;4980036;28;20053;-71
2023/07/01 10:11:40;;;;;;;11.50;10.40;;;18.00;99.90;;;;;;4980477;28;20042;-71
2023/07/01 10:14:09;;;;;;;12.35;11.25;;;18.00;99.90;;;;;;4979688;28;20497;-71
2023/07/01 10:16:47;;;;;;;12.60;11.40;;;18.00;99.90;;;;;;4972027;28;20043;-71
2023/07/01 10:19:33;;;;;;;12.57;11.38;;;18.10;99.90;;;;;;4966568;28;20054;-71
2023/07/01 10:22:26;;;;;;;11.80;10.80;;;18.20;99.90;;;;;;4959034;28;20053;-71
2023/07/01 10:25:03;;;;;;;12.30;11.20;;;18.20;99.90;;;;;;4976456;28;20050;-71
2023/07/01 10:27:44;;;;;;;11.77;10.63;;;18.30;99.90;;;;;;4977789;28;20047;-71
2023/07/01 10:30:12;;;;;;;12.20;11.10;;;18.30;99.90;;;;;;4965526;28;20058;-71
2023/07/01 10:32:38;;;;;;;11.75;10.65;;;18.40;99.90;;;;;;4986441;28;20050;-71
2023/07/01 10:35:03;;;;;;;11.68;10.68;;;18.40;99.90;;;;;;4986827;28;20540;-71
2023/07/01 10:37:31;;;;;;;11.40;10.30;;;18.50;99.90;;;;;;4993004;28;20046;-72
2023/07/01 10:39:59;;;;;;;11.80;10.75;;;18.60;99.90;;;;;;4979468;28;20061;-71
2023/07/01 10:42:33;;;;;;;12.20;11.02;;;18.50;99.90;;;;;;4984804;28;20493;-71
2023/07/01 10:45:11;;;;;;;12.95;11.75;;;18.60;99.90;;;;;;4972028;28;20129;-71
2023/07/01 10:48:03;;;;;;;12.50;11.40;;;18.60;99.90;;;;;;4983077;28;20089;-71
2023/07/01 10:50:29;;;;;;;12.50;11.40;;;18.70;99.90;;;;;;4977012;28;20057;-71
2023/07/01 10:52:57;;;;;;;12.63;11.43;;;18.70;99.90;;;;;;4983394;28;20050;-71
2023/07/01 10:55:35;;;;;;;12.30;11.23;;;18.70;99.90;;;;;;4970016;28;20043;-71
2023/07/01 10:58:18;;;;;;;12.75;11.55;;;18.70;99.90;;;;;;4968949;28;20124;-71
2023/07/01 11:00:44;;;;;;;12.48;11.32;;;18.60;99.90;;;;;;4973166;28;20066;-71
2023/07/01 11:03:36;;;;;;;14.40;13.10;;;18.60;99.90;;;;;;4981576;28;20050;-72
2023/07/01 11:06:10;;;;;;;12.23;11.02;;;18.60;99.90;;;;;;4963888;28;20061;-71
2023/07/01 11:08:48;;;;;;;11.95;10.75;;;18.50;99.90;;;;;;4992700;28;20407;-71
2023/07/01 11:11:26;;;;;;;12.93;10.27;;;18.60;99.90;;;;;;4966010;28;20050;-72
2023/07/01 11:14:02;;;;;;;12.82;11.65;;;18.60;99.90;;;;;;4965880;28;20340;-71
2023/07/01 11:16:29;;;;;;;11.57;10.48;;;18.70;99.90;;;;;;4964203;28;20054;-72
2023/07/01 11:18:58;;;;;;;11.82;10.63;;;18.70;99.90;;;;;;4990731;28;20500;-72
2023/07/01 11:21:26;;;;;;;12.00;10.10;;;18.60;99.90;;;;;;4966244;28;20717;-72
2023/07/01 11:23:53;;;;;;;10.52;9.52;;;18.60;99.90;;;;;;4965017;28;20081;-71
2023/07/01 11:26:26;;;;;;;10.52;9.52;;;18.60;99.90;;;;;;4977903;28;20536;-71
2023/07/01 11:28:52;;;;;;;10.10;9.20;;;18.50;99.90;;;;;;4981061;28;20546;-72
2023/07/01 11:31:21;;;;;;;9.32;8.43;;;18.60;99.90;;;;;;4982688;28;20529;-72
2023/07/01 11:33:51;;;;;;;9.63;8.73;;;18.50;99.90;;;;;;4967571;28;20050;-72
2023/07/01 11:36:19;;;;;;;9.68;8.70;;;18.50;99.90;;;;;;4970842;28;20035;-71
2023/07/01 11:38:48;;;;;;;8.82;7.93;;;18.60;99.90;;;;;;4968940;28;20564;-71
2023/07/01 11:41:23;;;;;;;7.70;6.95;;;18.70;99.90;;;;;;4981664;28;20521;-71
2023/07/01 11:43:49;;;;;;;7.85;7.05;;;18.90;99.90;;;;;;4980299;28;20054;-71
2023/07/01 11:46:33;;;;;;;7.85;7.05;;;19.00;99.90;;;;;;4968239;28;20509;-71
2023/07/01 11:49:16;;;;;;;7.63;6.60;;;19.10;99.90;;;;;;4970133;28;20046;-72
2023/07/01 11:51:45;;;;;;;7.43;6.38;;;19.10;99.90;;;;;;4979315;28;20061;-71
2023/07/01 11:54:12;;;;;;;11.00;8.13;;;19.00;99.90;;;;;;4968703;28;20047;-70
2023/07/01 11:56:38;;;;;;;11.20;6.30;;;19.00;99.90;;;;;;4986058;28;20400;-71
2023/07/01 11:59:04;;;;;;;8.88;5.60;;;19.00;99.90;;;;;;4979293;28;20042;-70
2023/07/01 12:01:30;;;;;;;6.00;5.18;;;19.10;99.90;;;;;;4985848;28;20092;-70
2023/07/01 12:03:55;;;;;;;5.22;4.30;;;19.20;99.90;;;;;;4998700;28;20046;-70
2023/07/01 12:06:23;;;;;;;5.45;3.83;;;19.40;99.90;;;;;;4983862;28;20046;-70
2023/07/01 12:09:03;;;;;;;4.38;3.42;;;19.50;99.90;;;;;;4983660;28;20412;-71
2023/07/01 12:11:29;;;;;;;4.00;3.60;;;19.60;99.90;;;;;;4987614;28;20046;-70
2023/07/01 12:13:56;;;;;;;4.60;3.70;;;19.70;99.90;;;;;;4985164;28;20281;-70
2023/07/01 12:16:22;;;;;;;4.22;3.33;;;19.70;99.90;;;;;;4987946;28;20606;-70
2023/07/01 12:18:47;;;;;;;5.05;3.88;;;19.70;99.90;;;;;;4984595;28;20568;-71
2023/07/01 12:21:13;;;;;;;4.35;3.95;;;19.80;99.90;;;;;;4987407;28;20132;-70
2023/07/01 12:23:43;;;;;;;5.22;4.50;;;19.80;99.90;;;;;;4983893;28;20038;-71
2023/07/01 12:26:13;;;;;;;5.53;5.03;;;19.80;99.90;;;;;;4980445;28;20383;-71
2023/07/01 12:28:39;;;;;;;6.72;5.28;;;19.80;99.90;;;;;;4974637;28;20073;-71
2023/07/01 12:31:06;;;;;;;7.82;5.63;;;19.70;99.90;;;;;;4987717;28;20038;-71
2023/07/01 12:33:36;;;;;;;6.50;5.53;;;19.70;99.90;;;;;;4987547;28;20073;-70
2023/07/01 12:36:02;;;;;;;;;;;19.70;99.90;;;;;;4969577;28;20080;-71
2023/07/01 12:38:29;;;;;;;7.43;5.82;;;19.70;99.90;;;;;;4985863;28;20896;-71
2023/07/01 12:40:56;;;;;;;7.40;6.05;;;19.70;99.90;;;;;;4989538;28;20054;-70
2023/07/01 12:43:25;;;;;;;6.10;5.38;;;19.70;99.90;;;;;;4986544;28;20049;-71
2023/07/01 12:45:51;;;;;;;8.20;6.80;;;19.70;99.90;;;;;;4972714;28;20698;-70